Time;durP1;ratioP1;P1;durP2;ratioP2;P2;SDS_P1;SDS_P2;PMS_P1;PMS_P2;Temp;Humidity;BMP_temperature;BMP_pressure;BME280_temperature;BME280_humidity;BME280_pressure;Samples;Min_cycle;Max_cycle;Signal;HPM_P1;HPM_P2
2023/02/09 00:02:54;;;;;;;18.37;14.50;;;0.00;89.10;;;;;;10499174;28;20214;-79
2023/02/09 00:07:58;;;;;;;21.93;19.20;;;-0.10;89.60;;;;;;10497902;28;20282;-78
2023/02/09 00:18:16;;;;;;;22.03;19.40;;;-0.10;89.60;;;;;;10485680;28;20564;-78
2023/02/09 00:23:19;;;;;;;23.30;19.30;;;-0.10;90.30;;;;;;10496832;28;20257;-78
2023/02/09 00:28:22;;;;;;;22.23;18.00;;;-0.10;90.00;;;;;;10498721;28;20194;-78
2023/02/09 00:33:26;;;;;;;22.80;19.57;;;-0.10;90.20;;;;;;10498997;28;20297;-78
2023/02/09 00:38:33;;;;;;;22.47;19.07;;;-0.10;90.20;;;;;;10497955;28;20209;-77
2023/02/09 00:43:35;;;;;;;23.00;19.63;;;0.00;90.20;;;;;;10500023;28;20228;-78
2023/02/09 00:48:37;;;;;;;27.23;20.13;;;0.00;89.70;;;;;;10499488;28;20231;-78
2023/02/09 00:53:41;;;;;;;24.00;20.40;;;0.00;90.10;;;;;;10499109;28;20217;-78
2023/02/09 00:58:43;;;;;;;22.40;19.93;;;-0.10;90.20;;;;;;10500910;28;20763;-78
2023/02/09 01:03:46;;;;;;;23.93;18.83;;;0.00;90.00;;;;;;10497892;28;20244;-78
2023/02/09 01:08:50;;;;;;;22.37;19.13;;;-0.10;90.10;;;;;;10497585;28;20201;-78
2023/02/09 01:13:52;;;;;;;23.80;19.60;;;-0.20;89.30;;;;;;10457638;28;20213;-77
2023/02/09 01:18:54;;;;;;;21.50;18.33;;;-0.30;89.50;;;;;;10483169;28;20641;-78
2023/02/09 01:23:58;;;;;;;24.70;20.10;;;-0.40;89.90;;;;;;10498310;28;20309;-78
2023/02/09 01:29:00;;;;;;;29.23;23.00;;;-0.40;90.40;;;;;;10497696;28;20197;-78
2023/02/09 01:34:04;;;;;;;25.67;21.43;;;-0.40;90.50;;;;;;10501166;28;20221;-78
2023/02/09 01:39:07;;;;;;;23.13;20.60;;;-0.40;90.30;;;;;;10498295;28;20279;-78
2023/02/09 01:44:43;;;;;;;24.30;20.40;;;-0.40;90.40;;;;;;10499843;28;20217;-80
2023/02/09 01:49:48;;;;;;;23.77;20.23;;;-0.40;90.50;;;;;;10508896;22;20223;-80
2023/02/09 01:54:54;;;;;;;28.33;21.33;;;-0.40;89.30;;;;;;10439097;28;20199;-80
2023/02/09 02:00:00;;;;;;;25.93;20.40;;;-0.50;90.00;;;;;;10452284;28;20233;-80
2023/02/09 02:05:05;;;;;;;21.87;19.50;;;-0.70;90.20;;;;;;10471808;28;20676;-80
2023/02/09 02:10:09;;;;;;;23.87;19.10;;;-0.70;90.70;;;;;;10468787;28;20214;-80
2023/02/09 02:15:12;;;;;;;27.97;20.70;;;-0.70;90.00;;;;;;10464972;28;20665;-79
2023/02/09 02:20:57;;;;;;;25.10;20.30;;;-0.90;91.00;;;;;;10470807;28;20629;-79
2023/02/09 02:26:45;;;;;;;25.63;21.17;;;-0.80;90.80;;;;;;10490037;28;20242;-79
2023/02/09 02:32:18;;;;;;;26.03;21.47;;;-0.80;90.30;;;;;;10440278;28;20757;-80
2023/02/09 02:37:32;;;;;;;22.90;20.00;;;-0.80;90.40;;;;;;10460850;28;20210;-80
2023/02/09 02:42:50;;;;;;;24.30;20.10;;;-0.80;90.50;;;;;;10505853;28;20206;-79
2023/02/09 02:48:00;;;;;;;25.40;21.33;;;-0.80;90.50;;;;;;10450578;28;20196;-81
2023/02/09 02:53:05;;;;;;;27.80;22.90;;;-0.90;90.30;;;;;;10485788;28;20727;-80
2023/02/09 02:58:10;;;;;;;24.77;20.30;;;-0.80;90.60;;;;;;10442424;28;20398;-81
2023/02/09 03:03:18;;;;;;;25.43;22.60;;;-0.80;91.00;;;;;;10471838;28;20217;-79
2023/02/09 03:08:20;;;;;;;28.77;23.10;;;-0.80;90.90;;;;;;10464522;28;20194;-79
2023/02/09 03:13:37;;;;;;;27.20;22.73;;;-0.80;91.00;;;;;;10468541;28;20214;-79
2023/02/09 03:19:25;;;;;;;29.03;23.47;;;-0.80;90.40;;;;;;10496256;28;20196;-79
2023/02/09 03:24:36;;;;;;;29.47;24.10;;;-0.90;90.90;;;;;;10456265;28;20260;-80
2023/02/09 03:29:40;;;;;;;29.17;24.10;;;-1.00;91.20;;;;;;10471599;28;20771;-80
2023/02/09 03:34:42;;;;;;;32.30;24.70;;;-1.00;91.00;;;;;;10440565;28;20307;-82
2023/02/09 03:39:46;;;;;;;30.27;24.20;;;-0.90;90.70;;;;;;10466628;28;20221;-80
2023/02/09 03:44:48;;;;;;;29.80;22.63;;;-0.90;90.80;;;;;;10497709;28;20577;-79
2023/02/09 03:49:50;;;;;;;29.03;24.93;;;-1.00;91.20;;;;;;10479115;28;20218;-79
2023/02/09 03:54:53;;;;;;;28.90;24.20;;;-1.10;91.50;;;;;;10479202;28;20527;-80
2023/02/09 03:59:55;;;;;;;29.87;24.23;;;-1.00;90.90;;;;;;10488970;28;20240;-82
2023/02/09 04:04:57;;;;;;;33.27;26.87;;;-1.10;91.20;;;;;;10478597;28;20240;-81
2023/02/09 04:10:00;;;;;;;29.47;24.40;;;-1.10;91.30;;;;;;10452445;28;20250;-82
2023/02/09 04:15:03;;;;;;;30.37;23.70;;;-1.10;91.80;;;;;;10473855;28;20280;-82
2023/02/09 04:20:06;;;;;;;30.83;25.87;;;-1.10;91.60;;;;;;10459026;28;20227;-80
2023/02/09 04:25:09;;;;;;;33.17;26.67;;;-1.10;91.50;;;;;;10464417;28;20217;-82
2023/02/09 04:30:12;;;;;;;32.10;27.10;;;-1.10;91.70;;;;;;10434729;28;20283;-82
2023/02/09 04:35:15;;;;;;;31.93;28.27;;;-1.10;91.40;;;;;;10472552;28;20194;-78
2023/02/09 04:40:18;;;;;;;33.03;28.50;;;-1.00;91.80;;;;;;10466077;28;20267;-80
2023/02/09 04:45:20;;;;;;;32.80;27.40;;;-1.00;91.90;;;;;;10472009;28;20213;-80
2023/02/09 04:50:22;;;;;;;33.83;26.83;;;-0.90;92.10;;;;;;10432226;28;20222;-82
2023/02/09 04:55:26;;;;;;;33.10;29.33;;;-0.80;91.50;;;;;;10477937;28;20735;-79
2023/02/09 05:00:28;;;;;;;33.83;28.23;;;-0.80;92.10;;;;;;10487683;28;20224;-80
2023/02/09 05:05:30;;;;;;;31.10;27.70;;;-0.70;91.40;;;;;;10444542;28;20351;-80
2023/02/09 05:10:34;;;;;;;33.67;29.10;;;-0.70;90.90;;;;;;10490074;28;20566;-80
2023/02/09 05:15:36;;;;;;;33.00;29.23;;;-0.80;90.90;;;;;;10461902;28;20190;-80
2023/02/09 05:20:39;;;;;;;29.73;26.60;;;-1.00;91.10;;;;;;10489580;28;20252;-79
2023/02/09 05:25:44;;;;;;;33.27;28.77;;;-1.00;91.30;;;;;;10460423;28;20208;-80
2023/02/09 05:30:47;;;;;;;35.47;31.10;;;-1.10;91.20;;;;;;10490105;28;20225;-80
2023/02/09 05:35:50;;;;;;;37.57;32.10;;;-1.20;91.60;;;;;;10430272;28;20300;-79
2023/02/09 05:40:53;;;;;;;49.33;37.20;;;-1.10;91.90;;;;;;10456269;28;20258;-82
2023/02/09 05:45:57;;;;;;;41.03;33.70;;;-1.10;91.60;;;;;;10443165;28;20233;-82
2023/02/09 05:50:59;;;;;;;39.63;32.80;;;-1.00;91.90;;;;;;10459181;28;20263;-80
2023/02/09 05:56:02;;;;;;;37.00;29.70;;;-1.00;91.30;;;;;;10498492;28;20195;-80
2023/02/09 06:01:05;;;;;;;35.47;29.97;;;-1.00;91.40;;;;;;10476744;28;20217;-78
2023/02/09 06:06:07;;;;;;;35.90;27.63;;;-1.00;91.10;;;;;;10486026;28;20226;-78
2023/02/09 06:11:11;;;;;;;39.73;29.47;;;-1.10;91.70;;;;;;10432893;28;20629;-79
2023/02/09 06:16:13;;;;;;;33.77;28.07;;;-1.10;91.80;;;;;;10450732;28;20257;-77
2023/02/09 06:21:15;;;;;;;37.60;28.70;;;-1.00;91.60;;;;;;10450175;28;20744;-76
2023/02/09 06:26:19;;;;;;;38.40;30.83;;;-1.00;91.20;;;;;;10455466;28;20209;-76
2023/02/09 06:31:21;;;;;;;36.50;29.20;;;-1.10;92.00;;;;;;10440609;28;20219;-77
2023/02/09 06:36:23;;;;;;;37.60;28.60;;;-1.00;92.00;;;;;;10458660;28;20250;-78
2023/02/09 06:41:27;;;;;;;40.10;31.50;;;-1.10;92.30;;;;;;10438162;28;20560;-77
2023/02/09 06:46:29;;;;;;;32.47;28.97;;;-1.00;92.10;;;;;;10458030;28;20204;-77
2023/02/09 06:51:31;;;;;;;35.40;27.40;;;-0.90;91.50;;;;;;10456936;28;20304;-78
2023/02/09 06:56:34;;;;;;;38.40;26.90;;;-0.90;91.10;;;;;;10438467;28;20548;-79
2023/02/09 07:01:37;;;;;;;35.27;28.70;;;-1.10;91.70;;;;;;10437973;28;20220;-80
2023/02/09 07:06:39;;;;;;;38.30;27.93;;;-1.10;91.20;;;;;;10455938;28;20697;-79
2023/02/09 07:11:42;;;;;;;38.17;31.10;;;-1.20;91.30;;;;;;10457198;28;20221;-78
2023/02/09 07:16:47;;;;;;;37.43;30.50;;;-1.20;91.80;;;;;;10456808;28;20539;-77
2023/02/09 07:21:50;;;;;;;40.13;30.23;;;-1.20;91.80;;;;;;10423308;28;20704;-79
2023/02/09 07:26:53;;;;;;;43.07;30.27;;;-1.10;92.30;;;;;;10422342;28;20244;-78
2023/02/09 07:31:55;;;;;;;35.30;29.30;;;-1.00;92.40;;;;;;10422669;28;20245;-76
2023/02/09 07:36:57;;;;;;;38.20;31.27;;;-0.90;92.10;;;;;;10456020;28;20461;-78
2023/02/09 07:42:00;;;;;;;36.63;30.70;;;-0.80;91.90;;;;;;10438286;28;20638;-76
2023/02/09 07:47:19;;;;;;;37.20;28.70;;;-0.80;91.60;;;;;;10438354;28;20282;-80
2023/02/09 07:52:22;;;;;;;43.43;31.83;;;-0.80;92.50;;;;;;10437933;28;20775;-78
2023/02/09 07:57:26;;;;;;;37.67;30.20;;;-0.80;92.60;;;;;;10480060;28;20602;-78
2023/02/09 08:02:34;;;;;;;36.07;29.33;;;-0.70;91.90;;;;;;10435159;28;20218;-78
2023/02/09 08:07:36;;;;;;;37.70;32.17;;;-0.60;92.30;;;;;;10438215;28;20228;-78
2023/02/09 08:18:04;;;;;;;39.37;31.80;;;-0.50;92.50;;;;;;10429071;28;20219;-79
2023/02/09 08:23:14;;;;;;;39.13;34.50;;;-0.40;92.90;;;;;;10499714;28;20219;-79
2023/02/09 08:28:18;;;;;;;41.10;34.07;;;-0.30;93.50;;;;;;10441546;28;20214;-78
2023/02/09 08:33:20;;;;;;;39.83;34.63;;;-0.20;93.40;;;;;;10498323;28;20741;-78
2023/02/09 08:38:22;;;;;;;41.37;35.00;;;0.00;93.00;;;;;;10459940;28;20293;-78
2023/02/09 08:43:25;;;;;;;39.60;33.77;;;0.20;93.00;;;;;;10480951;28;20219;-78
2023/02/09 08:48:30;;;;;;;41.20;34.73;;;0.40;92.60;;;;;;10458280;28;20592;-78
2023/02/09 08:53:33;;;;;;;45.20;36.07;;;0.50;92.40;;;;;;10467879;28;20238;-78
2023/02/09 08:58:37;;;;;;;42.77;34.13;;;0.70;92.50;;;;;;10473929;28;20251;-78
2023/02/09 09:03:41;;;;;;;41.90;35.00;;;0.90;92.40;;;;;;10474107;28;20252;-78
2023/02/09 09:08:43;;;;;;;41.63;35.37;;;1.00;92.70;;;;;;10464535;28;20557;-78
2023/02/09 09:13:47;;;;;;;40.70;36.23;;;1.20;92.40;;;;;;10475123;28;20305;-80
2023/02/09 09:18:49;;;;;;;38.57;34.37;;;1.30;92.30;;;;;;10446053;28;20204;-82
2023/02/09 09:23:51;;;;;;;38.37;34.20;;;1.50;92.00;;;;;;10475062;28;20208;-77
2023/02/09 09:28:54;;;;;;;40.20;33.43;;;1.70;91.90;;;;;;10487455;28;20193;-78
2023/02/09 09:33:59;;;;;;;38.60;34.20;;;1.80;91.80;;;;;;10490451;28;20308;-78
2023/02/09 09:39:02;;;;;;;45.13;35.30;;;1.90;91.90;;;;;;10462680;28;20661;-79
2023/02/09 09:44:15;;;;;;;39.80;33.13;;;2.10;91.60;;;;;;10458147;28;20217;-79
2023/02/09 09:49:24;;;;;;;38.77;34.37;;;2.20;91.30;;;;;;10492249;28;20193;-78
2023/02/09 09:54:29;;;;;;;41.83;34.57;;;2.30;91.50;;;;;;10487414;28;20203;-78
2023/02/09 09:59:37;;;;;;;35.83;31.73;;;2.40;92.40;;;;;;10463093;28;20316;-79
2023/02/09 10:04:39;;;;;;;39.03;33.53;;;2.50;91.70;;;;;;10474128;28;20233;-79
2023/02/09 10:09:46;;;;;;;37.47;31.40;;;2.60;91.50;;;;;;10488706;28;20293;-79
2023/02/09 10:14:50;;;;;;;38.87;33.13;;;2.70;91.20;;;;;;10484351;28;20229;-79
2023/02/09 10:20:04;;;;;;;40.27;32.87;;;2.70;91.20;;;;;;10473083;28;20704;-79
2023/02/09 10:25:36;;;;;;;44.03;34.50;;;2.80;90.70;;;;;;10464103;28;20240;-79
2023/02/09 10:30:40;;;;;;;38.13;32.17;;;2.80;91.00;;;;;;10469325;28;20220;-79
2023/02/09 10:35:46;;;;;;;39.30;32.10;;;2.80;90.80;;;;;;10445942;28;20221;-79
2023/02/09 10:40:49;;;;;;;40.20;32.30;;;2.80;91.40;;;;;;10461538;28;20312;-79
2023/02/09 10:45:55;;;;;;;35.50;31.60;;;2.90;92.00;;;;;;10455230;28;20215;-79
2023/02/09 10:50:59;;;;;;;34.87;31.17;;;3.00;91.80;;;;;;10460615;28;20225;-79
2023/02/09 10:56:05;;;;;;;37.83;30.33;;;3.00;91.70;;;;;;10458472;28;20182;-79
2023/02/09 11:01:19;;;;;;;38.13;30.57;;;3.10;89.30;;;;;;10455676;28;20206;-79
2023/02/09 11:06:21;;;;;;;34.70;27.30;;;3.10;90.50;;;;;;10433507;28;20222;-79
2023/02/09 11:11:30;;;;;;;33.67;29.10;;;3.10;90.70;;;;;;10499397;28;20210;-79
2023/02/09 11:16:47;;;;;;;35.87;31.47;;;3.20;90.70;;;;;;10498727;28;20206;-77
2023/02/09 11:21:59;;;;;;;36.67;31.97;;;3.30;88.20;;;;;;10480456;28;20214;-76
2023/02/09 11:27:06;;;;;;;37.70;30.67;;;3.30;91.00;;;;;;10498220;28;20206;-76
2023/02/09 11:32:16;;;;;;;39.00;32.53;;;3.40;90.80;;;;;;10498289;28;20638;-76
2023/02/09 11:37:28;;;;;;;37.13;30.80;;;3.40;90.90;;;;;;10480026;28;20186;-78
2023/02/09 11:48:04;;;;;;;39.70;32.93;;;3.60;91.60;;;;;;10497247;28;20221;-79
2023/02/09 11:53:15;;;;;;;35.10;31.40;;;3.60;91.10;;;;;;10497065;28;20300;-77
2023/02/09 11:58:33;;;;;;;38.37;33.17;;;3.70;90.30;;;;;;10496942;28;20231;-78
2023/02/09 12:03:37;;;;;;;37.20;31.13;;;3.80;90.40;;;;;;10478466;28;20213;-78
2023/02/09 12:08:55;;;;;;;37.47;31.13;;;3.80;90.00;;;;;;10496379;28;20517;-77
2023/02/09 12:14:22;;;;;;;39.77;33.47;;;3.90;91.60;;;;;;10478164;28;20206;-79
2023/02/09 12:19:33;;;;;;;35.40;31.07;;;3.90;91.20;;;;;;10496124;28;20318;-82
2023/02/09 12:24:39;;;;;;;38.10;32.17;;;3.90;90.90;;;;;;10496047;28;20196;-80
2023/02/09 12:29:42;;;;;;;39.70;31.00;;;3.90;90.90;;;;;;10477693;28;20203;-77
2023/02/09 12:34:48;;;;;;;36.83;31.47;;;4.00;90.70;;;;;;10495782;28;20176;-78
2023/02/09 12:40:17;;;;;;;37.70;31.40;;;4.00;90.10;;;;;;10494979;28;20214;-78
2023/02/09 12:45:35;;;;;;;34.67;30.10;;;4.10;90.30;;;;;;10494938;28;20226;-76
2023/02/09 12:50:50;;;;;;;40.63;30.90;;;4.20;89.70;;;;;;10494578;28;20721;-78
2023/02/09 12:56:00;;;;;;;35.97;29.10;;;4.20;90.20;;;;;;10433888;28;20210;-78
2023/02/09 13:01:02;;;;;;;35.80;30.27;;;4.30;90.10;;;;;;10483950;28;20223;-78
2023/02/09 13:06:21;;;;;;;34.13;30.37;;;4.30;87.70;;;;;;10483848;28;20226;-78
2023/02/09 13:11:31;;;;;;;35.40;30.37;;;4.40;88.50;;;;;;10455435;28;20655;-78
2023/02/09 13:16:52;;;;;;;32.33;28.50;;;4.40;87.90;;;;;;10450127;28;20283;-77
2023/02/09 13:22:04;;;;;;;36.80;30.53;;;4.40;87.60;;;;;;10461406;28;20718;-80
2023/02/09 13:27:17;;;;;;;34.60;28.90;;;4.50;85.90;;;;;;10434850;28;20276;-75
2023/02/09 13:32:34;;;;;;;32.10;27.57;;;4.60;83.30;;;;;;10450928;28;20614;-75
2023/02/09 13:37:45;;;;;;;31.30;28.03;;;4.60;85.90;;;;;;10451293;28;20559;-75
2023/02/09 13:42:56;;;;;;;30.30;27.00;;;4.60;86.30;;;;;;10432976;28;20369;-77
2023/02/09 13:48:00;;;;;;;32.63;28.33;;;4.60;84.30;;;;;;10450838;28;20561;-76
2023/02/09 13:53:11;;;;;;;31.23;27.47;;;4.60;87.10;;;;;;10450462;28;20238;-77
2023/02/09 13:58:17;;;;;;;31.77;28.37;;;4.70;85.50;;;;;;10466732;28;20209;-77
2023/02/09 14:03:23;;;;;;;33.30;29.13;;;4.70;86.90;;;;;;10480594;28;20232;-77
2023/02/09 14:08:28;;;;;;;31.83;27.00;;;4.70;85.70;;;;;;10468168;28;20655;-77
2023/02/09 14:13:33;;;;;;;35.70;29.67;;;4.70;85.00;;;;;;10491098;28;20753;-77
2023/02/09 14:18:50;;;;;;;34.97;27.97;;;4.70;87.20;;;;;;10489877;28;20199;-77
2023/02/09 14:24:16;;;;;;;33.90;28.03;;;4.70;88.80;;;;;;10481517;28;20216;-77
2023/02/09 14:29:23;;;;;;;36.17;27.87;;;4.80;82.50;;;;;;10458393;28;20226;-77
2023/02/09 14:34:33;;;;;;;35.43;28.40;;;4.80;83.10;;;;;;10490254;28;20247;-77
2023/02/09 14:39:53;;;;;;;35.87;29.30;;;4.80;83.50;;;;;;10467502;28;20286;-77
2023/02/09 14:44:56;;;;;;;33.67;29.87;;;4.80;86.40;;;;;;10492165;28;20208;-77
2023/02/09 14:49:59;;;;;;;36.10;29.50;;;4.80;85.40;;;;;;10498180;28;20316;-77
2023/02/09 14:55:04;;;;;;;36.00;28.93;;;4.80;86.80;;;;;;10481421;28;20204;-77
2023/02/09 15:00:15;;;;;;;39.23;31.10;;;4.80;88.70;;;;;;10497677;28;20335;-77
2023/02/09 15:05:18;;;;;;;38.60;30.83;;;4.80;87.70;;;;;;10462612;28;20232;-77
2023/02/09 15:10:25;;;;;;;35.07;28.73;;;4.80;85.90;;;;;;10496593;28;20345;-77
2023/02/09 15:15:27;;;;;;;35.47;30.60;;;4.80;86.90;;;;;;10497622;28;20220;-78
2023/02/09 15:20:30;;;;;;;42.27;34.90;;;4.80;86.60;;;;;;10477896;28;20225;-77
2023/02/09 15:25:33;;;;;;;40.67;30.87;;;4.80;89.00;;;;;;10492516;28;20252;-78
2023/02/09 15:30:36;;;;;;;35.37;30.70;;;4.80;88.60;;;;;;10438431;28;20292;-77
2023/02/09 15:35:39;;;;;;;36.30;30.20;;;4.90;84.90;;;;;;10447486;28;20269;-77
2023/02/09 15:51:30;;;;;;;33.60;29.03;;;4.80;88.70;;;;;;10454425;28;20224;-77
2023/02/09 15:56:35;;;;;;;35.10;29.53;;;4.80;88.00;;;;;;10464710;28;20203;-77
2023/02/09 16:01:37;;;;;;;34.80;30.60;;;4.80;88.90;;;;;;10491570;28;20221;-77
2023/02/09 16:06:40;;;;;;;34.27;29.97;;;4.70;90.20;;;;;;10486057;28;20309;-77
2023/02/09 16:11:43;;;;;;;32.00;26.90;;;4.70;90.10;;;;;;10444757;28;20300;-77
2023/02/09 16:16:46;;;;;;;31.53;25.87;;;4.70;90.00;;;;;;10486471;28;20210;-77
2023/02/09 16:21:51;;;;;;;30.47;26.20;;;4.70;90.10;;;;;;10443233;28;20262;-77
2023/02/09 16:26:55;;;;;;;35.70;27.87;;;4.70;90.20;;;;;;10486012;28;20649;-77
2023/02/09 16:31:57;;;;;;;43.23;32.70;;;4.70;87.70;;;;;;10460689;28;20409;-77
2023/02/09 16:36:59;;;;;;;47.77;35.63;;;4.50;88.00;;;;;;10486419;28;20206;-77
2023/02/09 16:42:03;;;;;;;36.20;31.03;;;4.20;88.80;;;;;;10441254;28;20245;-77
2023/02/09 16:47:10;;;;;;;37.77;31.77;;;4.00;88.70;;;;;;10486094;28;20214;-77
2023/02/09 16:52:16;;;;;;;38.37;32.33;;;3.80;89.40;;;;;;10441706;28;20249;-77
2023/02/09 16:57:22;;;;;;;31.50;28.13;;;3.50;90.30;;;;;;10468418;28;20274;-77
2023/02/09 17:02:34;;;;;;;33.30;29.20;;;3.40;90.30;;;;;;10455647;28;20212;-77
2023/02/09 17:07:37;;;;;;;35.60;29.03;;;3.30;90.50;;;;;;10467741;28;20216;-77
2023/02/09 17:12:41;;;;;;;32.50;28.13;;;3.10;90.60;;;;;;10470052;28;20308;-77
2023/02/09 17:17:46;;;;;;;41.93;33.63;;;3.00;90.60;;;;;;10475606;28;20193;-77
2023/02/09 17:22:51;;;;;;;84.67;55.07;;;2.90;90.90;;;;;;10477367;28;20212;-78
2023/02/09 17:27:55;;;;;;;30.67;26.43;;;2.80;91.00;;;;;;10474685;28;20224;-78
2023/02/09 17:33:00;;;;;;;30.37;26.60;;;2.80;91.00;;;;;;10474244;28;20764;-78
2023/02/09 17:38:02;;;;;;;46.97;36.43;;;2.80;90.90;;;;;;10456638;28;20194;-78
2023/02/09 17:43:06;;;;;;;30.93;27.63;;;2.70;91.10;;;;;;10475192;28;20298;-78
2023/02/09 17:48:09;;;;;;;30.13;26.00;;;2.70;91.20;;;;;;10474106;28;20296;-78
2023/02/09 17:53:15;;;;;;;32.33;27.77;;;2.70;91.30;;;;;;10474210;28;20217;-77
2023/02/09 17:58:19;;;;;;;34.90;27.63;;;2.60;91.50;;;;;;10474520;28;20724;-78
2023/02/09 18:03:23;;;;;;;31.53;28.07;;;2.50;91.70;;;;;;10456476;28;20308;-78
2023/02/09 18:08:26;;;;;;;31.57;27.90;;;2.50;91.50;;;;;;10469775;28;20228;-78
2023/02/09 18:13:29;;;;;;;31.97;28.10;;;2.50;91.60;;;;;;10463628;28;20221;-79
2023/02/09 18:18:33;;;;;;;31.53;26.47;;;2.50;91.40;;;;;;10485205;28;20193;-77
2023/02/09 18:23:40;;;;;;;33.57;28.63;;;2.50;91.70;;;;;;10446540;28;20695;-76
2023/02/09 18:28:44;;;;;;;34.53;29.63;;;2.40;91.60;;;;;;10491102;28;20741;-79
2023/02/09 18:33:46;;;;;;;33.37;28.40;;;2.40;91.50;;;;;;10422997;28;20742;-77
2023/02/09 18:38:50;;;;;;;33.00;28.50;;;2.40;91.60;;;;;;10461841;28;20191;-76
2023/02/09 18:43:54;;;;;;;33.37;29.30;;;2.30;91.60;;;;;;10490509;28;20304;-77
2023/02/09 18:48:56;;;;;;;38.53;31.57;;;2.30;91.50;;;;;;10437709;28;20305;-77
2023/02/09 18:53:59;;;;;;;36.50;31.87;;;2.20;91.80;;;;;;10456835;28;20549;-77
2023/02/09 18:59:02;;;;;;;34.67;29.63;;;2.20;91.70;;;;;;10444517;28;20235;-77
2023/02/09 19:04:04;;;;;;;36.97;32.40;;;2.20;91.70;;;;;;10471869;28;20643;-78
2023/02/09 19:09:06;;;;;;;37.13;32.27;;;2.10;92.50;;;;;;10458620;28;20320;-77
2023/02/09 19:19:29;;;;;;;40.47;33.90;;;2.10;92.10;;;;;;10456853;28;20197;-79
2023/02/09 19:24:31;;;;;;;43.60;35.03;;;2.10;92.10;;;;;;10469194;28;20268;-78
2023/02/09 19:29:36;;;;;;;36.77;32.77;;;2.00;92.50;;;;;;10468179;28;20743;-78
2023/02/09 19:34:41;;;;;;;39.87;33.60;;;2.00;92.70;;;;;;10458949;28;20205;-79
2023/02/09 19:39:51;;;;;;;36.10;31.40;;;2.10;92.20;;;;;;10426007;28;20205;-80
2023/02/09 19:44:55;;;;;;;36.83;31.67;;;2.00;92.40;;;;;;10459311;28;20204;-78
2023/02/09 19:55:07;;;;;;;37.90;33.30;;;2.00;92.10;;;;;;10346980;28;20215;-79
2023/02/09 20:00:14;;;;;;;40.90;32.60;;;2.00;92.10;;;;;;10343783;28;20188;-77
2023/02/09 20:05:17;;;;;;;43.87;35.37;;;2.00;92.10;;;;;;10339370;28;20254;-77
2023/02/09 20:10:20;;;;;;;46.27;36.10;;;1.90;92.70;;;;;;10334367;28;20222;-77
2023/02/09 20:15:24;;;;;;;38.40;33.33;;;1.90;93.10;;;;;;10330307;28;20279;-77
2023/02/09 20:20:26;;;;;;;42.17;35.07;;;1.90;92.80;;;;;;10329823;28;20745;-77
2023/02/09 20:25:30;;;;;;;36.90;30.97;;;1.90;92.60;;;;;;10338696;28;20229;-77
2023/02/09 20:30:33;;;;;;;39.20;33.20;;;1.90;92.20;;;;;;10327998;28;20699;-77
2023/02/09 20:35:38;;;;;;;42.67;34.87;;;1.80;93.10;;;;;;10328767;28;20200;-77
2023/02/09 20:40:41;;;;;;;42.37;34.90;;;1.80;92.90;;;;;;10326328;28;20663;-76
2023/02/09 20:51:05;;;;;;;37.27;32.47;;;1.80;92.80;;;;;;10337556;28;20229;-80
2023/02/09 20:56:07;;;;;;;38.37;30.83;;;1.80;92.60;;;;;;10363968;28;20230;-79
2023/02/09 21:01:11;;;;;;;35.70;30.67;;;1.80;92.90;;;;;;10366449;28;20261;-79
2023/02/09 21:06:14;;;;;;;34.17;29.83;;;1.80;92.50;;;;;;10342672;28;20737;-78
2023/02/09 21:11:28;;;;;;;34.60;28.20;;;1.80;92.40;;;;;;10371822;28;20239;-78
2023/02/09 21:16:32;;;;;;;48.23;40.70;;;1.70;92.50;;;;;;10358926;28;20195;-78
2023/02/09 21:21:40;;;;;;;32.30;28.90;;;1.60;92.50;;;;;;10375362;28;20237;-79
2023/02/09 21:26:43;;;;;;;33.60;29.20;;;1.50;92.50;;;;;;10374319;28;20572;-78
2023/02/09 21:31:46;;;;;;;34.67;29.67;;;1.40;92.60;;;;;;10374776;28;20211;-78
2023/02/09 21:36:48;;;;;;;33.47;28.30;;;1.40;92.90;;;;;;10371421;28;20676;-79
2023/02/09 21:47:15;;;;;;;35.73;31.00;;;1.40;93.20;;;;;;10373565;28;20204;-78
2023/02/09 21:52:17;;;;;;;33.33;28.13;;;1.40;93.10;;;;;;10378228;28;20234;-78
2023/02/09 21:57:19;;;;;;;40.73;29.60;;;1.50;92.50;;;;;;10373630;28;20639;-78
2023/02/09 22:02:23;;;;;;;32.60;28.50;;;1.40;92.40;;;;;;10370023;28;20203;-79
2023/02/09 22:07:26;;;;;;;45.80;34.03;;;1.30;92.20;;;;;;10370701;28;20219;-78
2023/02/09 22:12:28;;;;;;;34.73;28.57;;;1.20;92.70;;;;;;10374699;28;20213;-78
2023/02/09 22:17:32;;;;;;;52.40;37.70;;;1.20;92.70;;;;;;10373114;28;20735;-78
2023/02/09 22:22:34;;;;;;;116.57;70.50;;;1.10;93.10;;;;;;10372365;28;20215;-78
2023/02/09 22:27:36;;;;;;;82.20;56.20;;;1.20;92.70;;;;;;10376278;28;20250;-78
2023/02/09 22:32:39;;;;;;;82.20;53.30;;;1.10;92.90;;;;;;10378678;28;20282;-78
2023/02/09 22:37:41;;;;;;;41.53;35.00;;;1.10;93.00;;;;;;10377005;28;20185;-79
2023/02/09 22:42:43;;;;;;;52.73;43.30;;;1.10;93.20;;;;;;10378510;28;20215;-77
2023/02/09 22:47:47;;;;;;;44.47;36.53;;;1.10;93.60;;;;;;10357480;28;20214;-79
2023/02/09 22:52:49;;;;;;;44.30;37.20;;;1.20;93.50;;;;;;10374778;28;20226;-78
2023/02/09 22:57:51;;;;;;;39.20;32.93;;;1.20;93.50;;;;;;10373050;28;20599;-78
2023/02/09 23:02:54;;;;;;;40.03;33.13;;;1.30;93.60;;;;;;10372809;28;20213;-78
2023/02/09 23:07:57;;;;;;;37.60;31.20;;;1.30;93.40;;;;;;10376729;28;20221;-78
2023/02/09 23:12:59;;;;;;;40.80;32.67;;;1.40;93.10;;;;;;10378984;28;20307;-79
2023/02/09 23:18:02;;;;;;;39.30;34.10;;;1.30;93.00;;;;;;10360919;28;20200;-78
2023/02/09 23:23:05;;;;;;;38.13;32.37;;;1.30;93.30;;;;;;10358326;28;20225;-80
2023/02/09 23:28:07;;;;;;;40.53;33.77;;;1.20;93.70;;;;;;10374730;28;20229;-78
2023/02/09 23:33:10;;;;;;;39.00;31.40;;;1.30;93.50;;;;;;10375728;28;20277;-79
2023/02/09 23:38:12;;;;;;;41.67;33.70;;;1.30;93.80;;;;;;10370769;28;20282;-78
2023/02/09 23:43:15;;;;;;;38.27;31.73;;;1.30;93.60;;;;;;10374437;28;20226;-77
2023/02/09 23:48:18;;;;;;;37.67;32.30;;;1.30;93.80;;;;;;10374431;28;20315;-77
2023/02/09 23:53:21;;;;;;;36.40;29.10;;;1.30;93.80;;;;;;10374531;28;20260;-77
2023/02/09 23:58:23;;;;;;;37.47;32.50;;;1.30;93.70;;;;;;10372923;28;20710;-77
